HETR

Details ICAO HETR (ELT)
Name EL TOR
Region Egypt
Timezone Africa/Cairo (UTC+2.0)
Plans Departing 10
Arriving 21
Stats Elevation 115 ft / 35 m (AMSL)
Location 28.208982° 33.645505°
Runways 1
Magnetic Variation 4.334° E
Sunrise 2018-05-26 02:51:58 UTC / 2018-05-26 04:51:58 Local
Sunset 2018-05-26 16:35:49 UTC / 2018-05-26 18:35:49 Local
Advertisement - Login to hide

Runways

ID Width Length Bearing (true) Bearing (mag) Surface Threshold Offset Overrun Length
10 148 ft / 45 m 9,831 ft / 2,996 m 104.27° 99.94° Asphalt 0 ft / 0 m 210 ft / 64 m
28 148 ft / 45 m 9,831 ft / 2,996 m 284.28° 279.95° Asphalt 0 ft / 0 m 210 ft / 64 m

Map

Weather


0- 5 10 15 20 25 30 35+ Temperature / ° C

Clouds and Precipitation
Forecast for 2018-05-26 00:00 UTC. Updated 6 hours ago

Ground ~20,000 ft ~40,000 ft Winds

METAR

HETR 260500Z 31009KT CAVOK 28/21 Q1007

TAF

Not found

Frequencies

Ground 121.90 MHz GND
Tower 121.30 MHz TWR
Warning: Do not use this data for real-world aviation or navigation. No guarantee of current accuracy is given.